Time;durP1;ratioP1;P1;durP2;ratioP2;P2;SDS_P1;SDS_P2;PMS_P1;PMS_P2;Temp;Humidity;BMP_temperature;BMP_pressure;BME280_temperature;BME280_humidity;BME280_pressure;Samples;Min_cycle;Max_cycle;Signal;HPM_P1;HPM_P2
2021/12/05 00:24:19;;;;;;;4.78;1.60;;;;;;;1.50;86.16;95255.75;10266922;28;97077;-65
2021/12/05 00:29:28;;;;;;;4.78;1.48;;;;;;;1.49;86.26;95254.13;10283816;28;97003;-64
2021/12/05 00:34:59;;;;;;;3.65;0.93;;;;;;;1.45;86.82;95244.19;10378887;28;96903;-64
2021/12/05 00:56:33;;;;;;;4.93;1.33;;;;;;;1.26;87.24;95213.88;10413142;28;103424;-64
2021/12/05 01:02:09;;;;;;;6.40;2.13;;;;;;;1.20;87.27;95198.91;10401972;28;96877;-64
2021/12/05 01:07:32;;;;;;;4.15;1.17;;;;;;;1.12;87.53;95190.03;10400659;28;97004;-63
2021/12/05 01:13:03;;;;;;;2.28;1.20;;;;;;;1.11;87.37;95180.66;10421971;27;97265;-64
2021/12/05 01:18:10;;;;;;;5.13;1.25;;;;;;;1.06;87.20;95177.63;10406628;27;97538;-64
2021/12/05 01:23:25;;;;;;;5.32;1.50;;;;;;;1.07;87.03;95179.28;10409964;28;97733;-64
2021/12/05 01:28:43;;;;;;;3.40;1.50;;;;;;;0.97;87.74;95162.88;10404069;28;97867;-64
2021/12/05 01:33:55;;;;;;;2.75;1.40;;;;;;;1.02;87.67;95165.94;10408843;28;97109;-65
2021/12/05 01:39:09;;;;;;;3.45;1.77;;;;;;;1.03;87.25;95161.59;10397849;28;98096;-64
2021/12/05 01:44:36;;;;;;;3.13;1.90;;;;;;;1.06;87.88;95166.53;10402609;28;98746;-63
2021/12/05 01:50:06;;;;;;;4.07;1.60;;;;;;;1.13;87.57;95163.34;10393163;28;97218;-64
2021/12/05 01:55:41;;;;;;;5.72;2.03;;;;;;;1.13;87.70;95142.78;10406252;27;96945;-64
2021/12/05 02:11:57;;;;;;;3.40;1.70;;;;;;;1.25;87.43;95124.78;10401427;27;97042;-64
2021/12/05 02:43:50;;;;;;;3.80;1.48;;;;;;;1.18;87.75;95073.78;10390904;28;96763;-64
2021/12/05 02:48:57;;;;;;;6.25;1.60;;;;;;;1.20;87.59;95065.16;10397892;28;97103;-64
2021/12/05 02:54:06;;;;;;;6.25;1.92;;;;;;;1.17;87.93;95056.72;10407875;28;97087;-64
2021/12/05 02:59:21;;;;;;;3.50;1.50;;;;;;;1.17;87.70;95043.88;10400778;27;99455;-65
2021/12/05 03:04:30;;;;;;;3.38;1.83;;;;;;;1.12;87.48;95043.41;10397913;28;99046;-64
2021/12/05 03:09:34;;;;;;;9.20;2.20;;;;;;;1.04;87.50;95029.50;10390609;28;96733;-64
2021/12/05 03:14:38;;;;;;;5.28;2.22;;;;;;;1.06;88.43;95043.06;10388522;27;96971;-64
2021/12/05 03:19:41;;;;;;;5.53;2.10;;;;;;;1.02;88.28;95039.91;10397615;28;97159;-64
2021/12/05 03:24:45;;;;;;;5.07;2.17;;;;;;;0.94;88.20;95034.53;10393446;28;96783;-64
2021/12/05 03:29:48;;;;;;;7.40;1.77;;;;;;;0.91;88.54;95024.50;10393606;28;96882;-65
2021/12/05 03:34:51;;;;;;;3.50;1.65;;;;;;;0.83;88.08;95016.53;10392197;28;96817;-64
2021/12/05 03:39:55;;;;;;;5.97;1.80;;;;;;;0.86;88.46;95011.16;10395865;28;96854;-64
2021/12/05 03:44:59;;;;;;;3.70;1.65;;;;;;;0.83;88.11;95011.41;10392538;28;97252;-64
2021/12/05 03:50:01;;;;;;;5.78;1.92;;;;;;;0.79;88.39;95014.22;10413599;28;98275;-64
2021/12/05 03:55:09;;;;;;;4.63;2.13;;;;;;;0.75;87.88;95020.53;10417728;28;97083;-64
2021/12/05 04:00:16;;;;;;;5.13;2.40;;;;;;;0.69;88.04;95026.16;10414740;28;98881;-64
2021/12/05 04:05:19;;;;;;;5.30;2.08;;;;;;;0.63;87.95;95021.47;10412796;28;96931;-64
2021/12/05 04:10:26;;;;;;;9.18;2.72;;;;;;;0.63;88.38;95018.09;10416424;28;96971;-64
2021/12/05 04:15:31;;;;;;;5.65;1.85;;;;;;;0.67;88.29;95012.59;10413879;28;96806;-64
2021/12/05 04:20:34;;;;;;;7.10;2.50;;;;;;;0.71;88.26;95002.91;10400752;28;97049;-64
2021/12/05 04:25:39;;;;;;;3.72;1.92;;;;;;;0.69;88.32;94997.03;10416245;28;96883;-64
2021/12/05 04:30:42;;;;;;;4.82;1.70;;;;;;;0.69;88.24;94997.03;10412564;27;96835;-63
2021/12/05 04:35:45;;;;;;;4.20;1.92;;;;;;;0.70;87.77;94999.50;10411086;28;97420;-64
2021/12/05 04:40:50;;;;;;;9.65;2.20;;;;;;;0.70;88.13;94991.78;10394532;28;96693;-64
2021/12/05 04:45:54;;;;;;;5.47;2.17;;;;;;;0.65;88.17;94998.22;10404008;28;96910;-64
2021/12/05 04:50:57;;;;;;;6.78;2.60;;;;;;;0.60;88.11;94986.56;10400319;27;97032;-64
2021/12/05 04:56:02;;;;;;;6.03;2.17;;;;;;;0.64;88.12;94976.84;10389320;28;97031;-63
2021/12/05 05:01:06;;;;;;;6.57;1.97;;;;;;;0.73;87.50;94981.28;10404281;28;97296;-64
2021/12/05 05:06:13;;;;;;;5.57;2.40;;;;;;;0.78;87.88;94984.31;10411302;28;98460;-64
2021/12/05 05:11:20;;;;;;;5.40;2.13;;;;;;;0.83;87.88;94985.69;10394974;28;98868;-64
2021/12/05 05:16:25;;;;;;;6.18;1.70;;;;;;;0.89;87.16;94987.78;10414484;28;96920;-64
2021/12/05 05:21:38;;;;;;;6.33;2.10;;;;;;;0.92;87.20;94992.72;10393177;28;96835;-64
2021/12/05 05:27:04;;;;;;;3.33;1.67;;;;;;;0.86;87.98;94988.03;10408088;27;98486;-64
2021/12/05 05:48:32;;;;;;;4.65;1.77;;;;;;;0.92;88.14;94974.72;10396848;28;98856;-63
2021/12/05 05:53:35;;;;;;;4.32;1.60;;;;;;;0.86;87.93;94978.59;10411333;27;96983;-63
2021/12/05 05:58:42;;;;;;;5.10;1.60;;;;;;;0.83;88.06;94975.41;10402011;28;98803;-64
2021/12/05 06:03:45;;;;;;;6.35;1.60;;;;;;;0.84;88.38;94982.19;10413373;27;99103;-64
2021/12/05 06:08:48;;;;;;;3.22;1.52;;;;;;;0.84;88.44;94971.91;10417352;27;98603;-64
2021/12/05 06:13:52;;;;;;;3.88;1.58;;;;;;;0.86;88.17;94965.72;10417872;28;96851;-63
2021/12/05 06:18:55;;;;;;;5.80;1.70;;;;;;;0.89;87.96;94970.59;10405014;28;97676;-64
2021/12/05 06:23:58;;;;;;;1.80;1.02;;;;;;;0.83;87.88;94957.41;10408728;27;96973;-64
2021/12/05 06:29:08;;;;;;;4.00;1.50;;;;;;;0.90;87.92;94956.03;10407964;28;96982;-64
2021/12/05 06:39:42;;;;;;;4.70;2.28;;;;;;;0.79;87.92;94951.69;10400223;28;96760;-64
2021/12/05 06:50:07;;;;;;;3.53;1.40;;;;;;;0.63;87.88;94940.97;10398918;27;97188;-64
2021/12/05 06:55:18;;;;;;;4.28;1.23;;;;;;;0.61;87.79;94934.19;10414417;27;97770;-64
2021/12/05 07:00:27;;;;;;;3.40;1.27;;;;;;;0.55;87.74;94926.13;10412511;28;97063;-64
2021/12/05 07:05:43;;;;;;;3.45;1.45;;;;;;;0.47;88.09;94937.03;10393390;28;98985;-64
2021/12/05 07:10:52;;;;;;;;;;;;;;;0.46;87.97;94932.00;10409747;27;97046;-64
2021/12/05 07:16:00;;;;;;;5.25;1.20;;;;;;;0.56;88.10;94930.34;10418583;28;96881;-64
2021/12/05 07:21:23;;;;;;;4.97;1.63;;;;;;;0.66;87.96;94939.00;10416496;28;96984;-64
2021/12/05 07:26:34;;;;;;;4.68;1.40;;;;;;;0.68;87.89;94931.97;10408767;28;97209;-64
2021/12/05 07:42:23;;;;;;;8.07;2.15;;;;;;;0.82;87.67;94937.78;10405861;28;96758;-64
2021/12/05 07:47:31;;;;;;;4.30;2.15;;;;;;;0.86;87.93;94949.47;10409920;27;100179;-64
2021/12/05 07:52:35;;;;;;;5.50;1.65;;;;;;;0.83;88.16;94939.41;10414827;28;98065;-64
2021/12/05 07:57:50;;;;;;;6.00;1.80;;;;;;;0.79;88.34;94942.25;10414117;27;96842;-64
2021/12/05 08:18:59;;;;;;;2.17;0.95;;;;;;;0.95;88.66;94943.63;10383377;28;96930;-64
2021/12/05 08:24:02;;;;;;;2.58;0.90;;;;;;;1.08;88.55;94956.31;10390770;28;96993;-64
2021/12/05 08:29:10;;;;;;;4.88;1.20;;;;;;;1.06;87.89;94953.06;10402651;28;97299;-64
2021/12/05 08:34:42;;;;;;;3.55;0.77;;;;;;;0.85;88.83;94953.00;10411231;28;96823;-63
2021/12/05 08:40:15;;;;;;;5.32;1.05;;;;;;;0.87;88.49;94951.09;10383790;28;96952;-65
2021/12/05 09:23:34;;;;;;;1.83;1.23;;;;;;;1.61;88.63;94960.66;10421013;28;97352;-65
2021/12/05 10:06:53;;;;;;;0.73;0.50;;;;;;;1.93;88.27;94953.69;10342297;28;96939;-64
2021/12/05 10:12:14;;;;;;;1.45;0.70;;;;;;;2.05;88.06;94954.44;10346042;28;97457;-64
2021/12/05 10:17:46;;;;;;;1.20;0.60;;;;;;;2.18;88.71;94954.25;10346299;28;96891;-65
2021/12/05 10:38:44;;;;;;;2.75;1.13;;;;;;;2.19;87.82;94953.31;10411124;27;97541;-64
2021/12/05 10:43:50;;;;;;;3.72;0.90;;;;;;;2.09;87.86;94944.72;10407954;27;96912;-64
2021/12/05 10:48:58;;;;;;;2.13;0.77;;;;;;;1.92;87.86;94934.06;10409078;27;97409;-64
2021/12/05 10:54:04;;;;;;;1.83;0.90;;;;;;;1.80;87.26;94945.38;10416158;28;96983;-65
2021/12/05 10:59:16;;;;;;;3.70;1.23;;;;;;;1.75;87.23;94952.66;10411754;28;98429;-65
2021/12/05 11:04:22;;;;;;;1.60;0.80;;;;;;;1.59;87.26;94952.25;10410180;27;96903;-64
2021/12/05 11:09:27;;;;;;;2.55;1.00;;;;;;;1.52;87.60;94960.50;10401531;28;98050;-64
2021/12/05 11:14:35;;;;;;;1.55;0.80;;;;;;;1.34;88.14;94961.97;10415119;28;96896;-64
2021/12/05 11:19:41;;;;;;;2.55;1.10;;;;;;;1.46;87.75;94953.25;10413146;27;101061;-65
2021/12/05 11:24:47;;;;;;;2.05;1.13;;;;;;;1.59;87.57;94947.09;10385609;28;97018;-64
2021/12/05 11:30:09;;;;;;;2.92;0.80;;;;;;;1.67;87.70;94949.88;10403974;28;96917;-65
2021/12/05 11:35:32;;;;;;;2.05;1.70;;;;;;;1.81;87.70;94941.03;10405600;27;97098;-64
2021/12/05 11:40:54;;;;;;;3.10;1.70;;;;;;;1.97;87.98;94941.38;10409910;28;103569;-65
2021/12/05 11:46:05;;;;;;;3.28;1.30;;;;;;;1.96;87.93;94937.19;10406278;27;96878;-65
2021/12/05 11:51:31;;;;;;;4.53;1.20;;;;;;;1.88;87.96;94932.66;10412801;27;96787;-64
2021/12/05 11:56:43;;;;;;;2.00;1.00;;;;;;;1.77;87.30;94934.50;10396550;28;96830;-65
2021/12/05 12:01:49;;;;;;;2.45;1.90;;;;;;;1.78;87.87;94929.22;10396583;28;97141;-65
2021/12/05 12:07:10;;;;;;;2.60;1.63;;;;;;;1.85;87.55;94932.94;10402990;27;97794;-65
2021/12/05 12:12:15;;;;;;;3.65;1.30;;;;;;;2.04;87.95;94928.81;10408273;28;96876;-64
2021/12/05 12:17:19;;;;;;;2.00;1.42;;;;;;;2.22;87.89;94924.72;10403227;28;97998;-65
2021/12/05 12:22:26;;;;;;;1.98;0.70;;;;;;;2.50;87.90;94930.09;10385094;28;100485;-65
2021/12/05 12:27:29;;;;;;;1.52;0.80;;;;;;;2.75;88.35;94928.00;10404797;28;97032;-65
2021/12/05 12:32:39;;;;;;;1.02;0.70;;;;;;;2.99;87.73;94922.50;10391834;28;96825;-65
2021/12/05 12:38:03;;;;;;;3.50;0.95;;;;;;;2.85;87.36;94924.50;10389066;28;97036;-64
2021/12/05 12:43:08;;;;;;;1.77;1.05;;;;;;;2.84;86.88;94924.63;10404821;27;97955;-65
2021/12/05 12:48:16;;;;;;;1.05;0.60;;;;;;;2.81;87.04;94923.13;10414971;28;99262;-65
2021/12/05 12:53:23;;;;;;;1.80;0.70;;;;;;;2.93;86.57;94926.41;10413833;27;97319;-65
2021/12/05 12:58:39;;;;;;;3.05;0.82;;;;;;;2.77;85.69;94918.38;10406239;27;96877;-66
2021/12/05 13:04:26;;;;;;;;;;;;;;;2.65;86.28;94925.38;10411753;27;96931;-65
2021/12/05 13:15:01;;;;;;;2.47;1.60;;;;;;;2.15;85.73;94933.91;10409238;27;97964;-65
2021/12/05 13:20:06;;;;;;;3.33;1.83;;;;;;;2.23;85.33;94941.81;10408860;27;98896;-64
2021/12/05 13:25:10;;;;;;;1.42;1.20;;;;;;;2.36;85.53;94930.47;10408804;28;99531;-65
2021/12/05 13:30:30;;;;;;;3.90;2.15;;;;;;;2.47;85.50;94925.22;10409424;28;99267;-65
2021/12/05 13:35:36;;;;;;;1.88;1.30;;;;;;;2.50;85.04;94928.34;10406321;27;96844;-65
2021/12/05 13:40:40;;;;;;;1.80;1.10;;;;;;;2.50;85.71;94923.19;10395052;28;96931;-65
2021/12/05 13:45:43;;;;;;;2.78;1.40;;;;;;;2.56;85.67;94931.34;10406846;28;97980;-64
2021/12/05 13:50:56;;;;;;;1.27;0.90;;;;;;;2.56;86.06;94946.81;10413062;28;97084;-65
2021/12/05 13:56:08;;;;;;;1.65;0.90;;;;;;;2.21;86.15;94948.03;10417502;27;96833;-65
2021/12/05 14:01:15;;;;;;;1.75;1.05;;;;;;;2.07;85.94;94951.75;10420371;28;97348;-64
2021/12/05 14:06:27;;;;;;;2.80;1.30;;;;;;;2.19;86.05;94948.16;10412147;27;96741;-65
2021/12/05 14:11:33;;;;;;;1.50;1.00;;;;;;;2.35;86.20;94939.13;10408332;28;99244;-65
2021/12/05 14:16:38;;;;;;;2.57;1.53;;;;;;;2.39;85.57;94946.50;10401141;28;96992;-65
2021/12/05 14:21:45;;;;;;;9.15;5.57;;;;;;;2.44;86.20;94949.50;10416626;28;96965;-65
2021/12/05 14:26:49;;;;;;;2.67;1.55;;;;;;;2.24;85.26;94963.22;10415763;27;96762;-66
2021/12/05 14:31:57;;;;;;;1.63;1.33;;;;;;;2.05;86.11;94971.69;10411745;28;98772;-65
2021/12/05 14:37:05;;;;;;;2.53;1.60;;;;;;;1.99;86.03;94959.28;10407293;28;96875;-65
2021/12/05 14:42:10;;;;;;;2.58;1.80;;;;;;;2.17;86.15;94969.84;10406170;28;97272;-65
2021/12/05 14:47:16;;;;;;;5.88;2.53;;;;;;;2.18;87.07;94963.72;10400868;28;97051;-66
2021/12/05 14:52:23;;;;;;;3.00;1.77;;;;;;;2.13;86.99;94979.59;10385619;28;97237;-65
2021/12/05 14:57:29;;;;;;;1.00;0.90;;;;;;;2.12;86.93;94975.38;10411527;27;99453;-65
2021/12/05 15:02:32;;;;;;;1.65;1.10;;;;;;;2.04;87.20;94977.75;10412313;28;96886;-65
2021/12/05 15:07:37;;;;;;;3.03;1.45;;;;;;;1.99;87.51;94969.59;10407148;28;96894;-65
2021/12/05 15:12:40;;;;;;;1.60;1.20;;;;;;;1.92;87.45;94980.41;10408311;28;97122;-66
2021/12/05 15:17:44;;;;;;;1.60;1.20;;;;;;;1.88;88.15;94976.44;10405297;28;97433;-65
2021/12/05 15:22:51;;;;;;;2.80;1.60;;;;;;;1.83;87.96;94986.28;10406464;27;101065;-65
2021/12/05 15:27:55;;;;;;;4.00;1.95;;;;;;;1.78;87.88;94991.00;10408450;27;96977;-65
2021/12/05 15:33:02;;;;;;;1.73;1.23;;;;;;;1.68;88.15;94987.56;10409689;28;97075;-65
2021/12/05 15:38:09;;;;;;;2.33;1.10;;;;;;;1.61;88.42;94991.56;10409553;27;97887;-65
2021/12/05 15:43:20;;;;;;;3.65;1.27;;;;;;;1.59;88.04;94998.59;10407641;28;96877;-66
2021/12/05 15:48:24;;;;;;;3.15;1.38;;;;;;;1.58;88.09;94995.19;10410026;27;97809;-65
2021/12/05 15:53:32;;;;;;;3.43;1.23;;;;;;;1.52;88.05;95008.56;10403529;28;96891;-65
2021/12/05 15:58:42;;;;;;;1.63;1.10;;;;;;;1.55;88.51;95010.88;10408763;27;98572;-65
2021/12/05 16:03:47;;;;;;;1.95;0.93;;;;;;;1.44;88.39;95009.19;10404208;27;96911;-65
2021/12/05 16:08:54;;;;;;;1.90;1.08;;;;;;;1.23;88.85;95022.00;10410851;28;97264;-65
2021/12/05 16:13:57;;;;;;;4.05;1.90;;;;;;;1.07;88.67;95014.66;10414779;28;96875;-65
2021/12/05 16:19:09;;;;;;;3.55;1.63;;;;;;;0.94;89.79;95019.91;10409200;27;96869;-66
2021/12/05 16:24:17;;;;;;;4.50;1.40;;;;;;;0.90;89.20;95026.25;10414338;28;96781;-66
2021/12/05 16:29:23;;;;;;;3.22;2.33;;;;;;;0.78;89.09;95020.28;10415290;27;96893;-65
2021/12/05 16:34:29;;;;;;;2.88;1.92;;;;;;;0.75;89.26;95020.53;10418028;28;96839;-65
2021/12/05 16:39:37;;;;;;;4.25;1.80;;;;;;;0.71;89.36;95013.19;10417418;27;97276;-64
2021/12/05 16:44:40;;;;;;;2.63;1.70;;;;;;;0.64;89.60;95017.13;10413164;28;97872;-65
2021/12/05 16:49:45;;;;;;;3.88;2.20;;;;;;;0.59;89.77;95018.31;10415069;28;97273;-65
2021/12/05 16:54:51;;;;;;;;;;;;;;;0.59;90.00;95015.75;10415793;28;97309;-65
2021/12/05 16:59:55;;;;;;;4.10;2.70;;;;;;;0.49;89.85;95014.00;10416280;27;98223;-66
2021/12/05 17:05:03;;;;;;;4.40;2.97;;;;;;;0.53;90.03;95016.22;10415502;27;97155;-65
2021/12/05 17:10:11;;;;;;;4.78;3.30;;;;;;;0.49;90.52;95004.53;10413405;27;97359;-65
2021/12/05 17:15:16;;;;;;;4.85;3.22;;;;;;;0.54;90.46;95017.03;10414291;27;98498;-65
2021/12/05 17:20:25;;;;;;;4.32;3.45;;;;;;;0.56;90.41;95020.31;10408700;28;97674;-66
2021/12/05 17:25:37;;;;;;;4.70;3.60;;;;;;;0.50;90.63;95016.44;10412937;27;97515;-65
2021/12/05 17:30:51;;;;;;;5.63;3.75;;;;;;;0.46;90.74;95016.78;10414482;28;96949;-65
2021/12/05 17:35:55;;;;;;;5.68;3.80;;;;;;;0.39;90.61;95019.84;10405014;27;97720;-65
2021/12/05 17:40:59;;;;;;;6.90;3.50;;;;;;;0.24;91.05;95010.72;10408661;28;97278;-66
2021/12/05 17:46:02;;;;;;;5.13;3.87;;;;;;;0.27;90.92;95013.03;10411944;28;97499;-65
2021/12/05 17:51:07;;;;;;;5.53;3.90;;;;;;;0.17;91.15;95010.34;10413886;27;98010;-65
2021/12/05 17:56:18;;;;;;;5.65;3.75;;;;;;;0.01;91.22;95010.69;10408273;28;99001;-66
2021/12/05 18:06:47;;;;;;;5.93;4.65;;;;;;;-0.05;91.28;95021.38;10396031;28;99328;-65
2021/12/05 18:11:52;;;;;;;7.45;4.53;;;;;;;-0.04;91.57;95024.75;10387898;27;97185;-65
2021/12/05 18:16:55;;;;;;;6.77;4.90;;;;;;;-0.09;91.68;95025.13;10409968;27;96871;-66
2021/12/05 18:21:58;;;;;;;5.88;4.22;;;;;;;-0.11;91.53;95021.00;10414342;28;96877;-66
2021/12/05 18:27:03;;;;;;;5.63;4.25;;;;;;;-0.14;91.79;95027.19;10417626;28;104423;-65
2021/12/05 18:32:10;;;;;;;6.57;4.57;;;;;;;-0.14;91.78;95032.34;10410517;27;97260;-66
2021/12/05 18:37:13;;;;;;;5.65;4.07;;;;;;;-0.19;92.36;95024.97;10405447;28;97613;-65
2021/12/05 18:42:18;;;;;;;5.95;3.47;;;;;;;-0.22;91.95;95037.19;10405418;28;99015;-65
2021/12/05 18:47:23;;;;;;;;;;;;;;;-0.29;92.30;95033.44;10411038;28;96969;-65
2021/12/05 18:52:27;;;;;;;5.20;3.97;;;;;;;-0.39;92.66;95046.94;10408877;28;99285;-64
2021/12/05 18:57:31;;;;;;;5.65;3.80;;;;;;;-0.39;92.29;95049.53;10405063;28;97951;-65
2021/12/05 19:08:15;;;;;;;6.20;3.95;;;;;;;-0.36;92.79;95044.16;10408495;28;97499;-65
2021/12/05 19:13:19;;;;;;;5.35;4.05;;;;;;;-0.37;92.60;95039.97;10404838;28;98645;-66
2021/12/05 19:18:24;;;;;;;5.87;3.67;;;;;;;-0.33;92.37;95049.06;10405276;28;96911;-65
2021/12/05 19:23:27;;;;;;;5.00;3.50;;;;;;;-0.37;92.62;95045.09;10401879;28;99476;-65
2021/12/05 19:28:32;;;;;;;3.97;3.35;;;;;;;-0.33;92.47;95043.13;10406979;27;97645;-65
2021/12/05 19:33:35;;;;;;;4.70;3.30;;;;;;;-0.29;92.37;95049.66;10406829;28;97825;-66
2021/12/05 19:38:38;;;;;;;5.05;4.32;;;;;;;-0.29;92.81;95064.25;10405983;27;96818;-65
2021/12/05 19:43:45;;;;;;;3.97;3.13;;;;;;;-0.27;92.48;95057.25;10412504;27;100294;-65
2021/12/05 19:48:50;;;;;;;9.03;6.70;;;;;;;-0.23;92.42;95056.09;10406075;27;97230;-66
2021/12/05 19:53:54;;;;;;;7.07;4.90;;;;;;;-0.20;92.45;95063.56;10413830;27;98553;-66
2021/12/05 19:58:59;;;;;;;6.77;4.13;;;;;;;-0.20;92.35;95064.41;10409026;28;100858;-65
2021/12/05 20:04:03;;;;;;;14.48;8.38;;;;;;;-0.31;92.68;95066.09;10413919;28;97649;-66
2021/12/05 20:09:08;;;;;;;8.70;5.25;;;;;;;-0.41;92.27;95071.06;10397793;28;97474;-64
2021/12/05 20:14:13;;;;;;;5.95;3.97;;;;;;;-0.40;92.52;95063.25;10399822;28;97026;-66
2021/12/05 20:19:16;;;;;;;6.10;4.45;;;;;;;-0.36;92.75;95059.53;10399305;28;99336;-65
2021/12/05 20:24:20;;;;;;;4.88;3.33;;;;;;;-0.31;92.89;95071.25;10397010;28;96931;-65
2021/12/05 20:29:25;;;;;;;4.20;2.70;;;;;;;-0.38;92.94;95078.56;10401674;28;98987;-66
2021/12/05 20:34:28;;;;;;;3.37;2.33;;;;;;;-0.34;92.84;95077.41;10397941;28;99361;-66
2021/12/05 20:39:31;;;;;;;3.20;1.90;;;;;;;-0.33;93.43;95085.00;10397687;28;99528;-66
2021/12/05 20:44:36;;;;;;;2.17;1.90;;;;;;;-0.29;93.38;95079.66;10415100;27;97054;-66
2021/12/05 20:49:39;;;;;;;3.28;2.60;;;;;;;-0.29;93.20;95089.91;10405180;28;97113;-66
2021/12/05 20:54:42;;;;;;;4.38;3.08;;;;;;;-0.30;92.98;95098.53;10398815;28;97095;-64
2021/12/05 20:59:47;;;;;;;7.70;5.53;;;;;;;-0.28;93.31;95096.69;10409158;28;97807;-65
2021/12/05 21:04:50;;;;;;;4.60;3.40;;;;;;;-0.30;92.77;95107.06;10413399;27;97388;-65
2021/12/05 21:09:53;;;;;;;4.72;3.00;;;;;;;-0.30;93.32;95108.78;10410604;28;96956;-65
2021/12/05 21:14:58;;;;;;;6.90;4.65;;;;;;;-0.29;93.20;95110.44;10413659;27;97257;-66
2021/12/05 21:20:01;;;;;;;10.00;6.28;;;;;;;-0.27;93.27;95111.16;10412910;28;98802;-65
2021/12/05 21:25:05;;;;;;;6.85;3.50;;;;;;;-0.26;93.12;95120.50;10410427;28;97967;-64
2021/12/05 21:30:13;;;;;;;7.23;4.77;;;;;;;-0.25;93.05;95127.25;10401495;28;98627;-65
2021/12/05 21:35:19;;;;;;;12.95;8.02;;;;;;;-0.27;92.89;95134.25;10411122;28;99665;-65
2021/12/05 21:40:27;;;;;;;9.82;6.18;;;;;;;-0.22;93.13;95138.09;10406658;28;103016;-65
2021/12/05 21:45:32;;;;;;;8.23;4.57;;;;;;;-0.22;92.67;95143.25;10404893;27;97678;-65
2021/12/05 21:50:36;;;;;;;6.78;4.47;;;;;;;-0.19;93.08;95142.22;10403637;28;98826;-66
2021/12/05 21:55:41;;;;;;;6.78;4.20;;;;;;;-0.09;92.83;95152.63;10412416;27;96881;-65
2021/12/05 22:00:47;;;;;;;4.20;3.40;;;;;;;-0.13;93.05;95157.16;10401268;27;97167;-65
2021/12/05 22:05:52;;;;;;;4.60;4.07;;;;;;;-0.14;93.00;95160.69;10403941;27;98557;-66
2021/12/05 22:10:55;;;;;;;4.70;3.25;;;;;;;-0.11;92.68;95154.50;10407597;27;98464;-66
2021/12/05 22:16:02;;;;;;;3.50;2.38;;;;;;;-0.05;92.54;95154.88;10411994;27;98182;-65
2021/12/05 22:21:11;;;;;;;4.22;3.15;;;;;;;-0.02;92.52;95170.06;10407292;27;96946;-66
2021/12/05 22:26:14;;;;;;;4.13;2.42;;;;;;;0.00;92.53;95168.22;10403994;28;97381;-66
2021/12/05 22:31:19;;;;;;;3.78;3.10;;;;;;;0.02;92.71;95174.06;10411290;27;98697;-66
2021/12/05 22:36:22;;;;;;;;;;;;;;;-0.03;92.11;95190.72;10405883;28;96893;-66
2021/12/05 22:41:26;;;;;;;6.78;4.40;;;;;;;-0.08;93.03;95185.91;10400016;28;99173;-65
2021/12/05 22:46:30;;;;;;;12.73;6.55;;;;;;;-0.06;92.35;95193.50;10409530;27;96870;-67
2021/12/05 22:51:34;;;;;;;20.93;8.70;;;;;;;-0.01;92.52;95197.41;10404216;28;97501;-65
2021/12/05 22:56:37;;;;;;;15.02;7.25;;;;;;;0.01;92.70;95215.25;10396992;28;96991;-66
2021/12/05 23:01:42;;;;;;;12.57;6.80;;;;;;;0.01;92.34;95221.22;10397414;28;96875;-65
2021/12/05 23:06:45;;;;;;;;;;;;;;;-0.07;92.48;95218.38;10410956;27;96913;-65
2021/12/05 23:11:48;;;;;;;11.23;6.32;;;;;;;-0.16;92.26;95226.72;10405897;27;99448;-65
2021/12/05 23:16:53;;;;;;;13.55;7.93;;;;;;;-0.15;92.30;95236.03;10412789;27;98556;-65
2021/12/05 23:22:00;;;;;;;11.33;6.80;;;;;;;-0.14;92.23;95242.84;10400353;27;96846;-66
2021/12/05 23:27:06;;;;;;;11.07;7.47;;;;;;;-0.13;92.19;95244.47;10396841;28;96910;-64
2021/12/05 23:32:18;;;;;;;9.80;6.07;;;;;;;-0.07;92.66;95253.50;10403961;28;97903;-65
2021/12/05 23:37:21;;;;;;;18.38;11.32;;;;;;;-0.07;92.25;95238.91;10398823;28;96858;-66
2021/12/05 23:42:24;;;;;;;30.20;17.52;;;;;;;-0.09;92.37;95245.91;10396191;28;99932;-64
2021/12/05 23:47:29;;;;;;;15.77;8.68;;;;;;;-0.18;91.61;95242.22;10399103;28;98603;-65
2021/12/05 23:52:32;;;;;;;9.45;5.57;;;;;;;-0.24;91.65;95246.97;10385687;28;96952;-66
2021/12/05 23:57:35;;;;;;;6.60;4.88;;;;;;;-0.26;91.60;95256.53;10402460;28;96898;-65
